Time,TemperatureF,DewpointF,PressureIn,WindDirection,WindDirectionDegrees,WindSpeedMPH,WindSpeedGustMPH,Humidity,HourlyPrecipIn,Conditions,Clouds,dailyrainin,SoftwareType,DateUTC
2013-03-22 00:05:00,45.3,42.0,29.95,NNE,18,0.0,1.0,89,0.00,,,0.00,weatherlink.com 1.10,2013-03-22 07:05:00,
2013-03-22 00:20:00,44.8,42.0,29.95,NNE,26,0.0,1.0,90,0.00,,,0.00,weatherlink.com 1.10,2013-03-22 07:20:00,
2013-03-22 00:35:00,44.2,42.0,29.94,NNE,14,1.0,1.0,90,0.00,,,0.00,weatherlink.com 1.10,2013-03-22 07:35:00,
2013-03-22 00:50:00,43.9,42.0,29.94,NNE,14,0.0,1.0,91,0.00,,,0.00,weatherlink.com 1.10,2013-03-22 07:50:00,
2013-03-22 01:05:00,43.7,42.0,29.93,NNE,16,0.0,1.0,92,0.00,,,0.00,weatherlink.com 1.10,2013-03-22 08:05:00,
2013-03-22 01:20:00,43.4,41.0,29.94,NNE,33,0.0,2.0,92,0.00,,,0.00,weatherlink.com 1.10,2013-03-22 08:20:00,
2013-03-22 01:35:00,43.1,41.0,29.94,NNE,26,0.0,1.0,92,0.00,,,0.00,weatherlink.com 1.10,2013-03-22 08:35:00,
2013-03-22 01:50:00,42.7,41.0,29.94,ESE,122,0.0,1.0,93,0.00,,,0.00,weatherlink.com 1.10,2013-03-22 08:50:00,
2013-03-22 02:05:00,42.4,41.0,29.94,NW,321,0.0,2.0,93,0.00,,,0.00,weatherlink.com 1.10,2013-03-22 09:05:00,
2013-03-22 02:20:00,42.6,41.0,29.94,NE,45,0.0,1.0,94,0.00,,,0.00,weatherlink.com 1.10,2013-03-22 09:20:00,
2013-03-22 02:35:00,42.3,41.0,29.94,NNE,27,0.0,1.0,94,0.00,,,0.00,weatherlink.com 1.10,2013-03-22 09:35:00,
2013-03-22 02:50:00,41.9,40.0,29.93,North,5,0.0,1.0,94,0.00,,,0.00,weatherlink.com 1.10,2013-03-22 09:50:00,
2013-03-22 03:06:00,42.2,41.0,29.93,NNE,20,0.0,2.0,95,0.00,,,0.00,weatherlink.com 1.10,2013-03-22 10:06:00,
2013-03-22 03:21:00,41.5,40.0,29.93,East,79,0.0,2.0,95,0.00,,,0.00,weatherlink.com 1.10,2013-03-22 10:21:00,
2013-03-22 03:36:00,41.1,40.0,29.93,NE,46,0.0,1.0,95,0.00,,,0.00,weatherlink.com 1.10,2013-03-22 10:36:00,
2013-03-22 03:51:00,40.7,39.0,29.93,NNE,33,0.0,1.0,95,0.00,,,0.00,weatherlink.com 1.10,2013-03-22 10:51:00,
2013-03-22 04:06:00,41.1,40.0,29.93,NE,43,0.0,1.0,96,0.00,,,0.00,weatherlink.com 1.10,2013-03-22 11:06:00,
2013-03-22 04:36:00,40.4,39.0,29.93,ENE,60,0.0,1.0,95,0.00,,,0.00,weatherlink.com 1.10,2013-03-22 11:36:00,
2013-03-22 05:06:00,40.3,39.0,29.92,NNW,347,0.0,1.0,96,0.00,,,0.00,weatherlink.com 1.10,2013-03-22 12:06:00,
2013-03-22 05:21:00,40.3,39.0,29.92,NNE,29,0.0,1.0,96,0.00,,,0.00,weatherlink.com 1.10,2013-03-22 12:21:00,
2013-03-22 05:36:00,39.8,39.0,29.93,NE,53,0.0,1.0,96,0.00,,,0.00,weatherlink.com 1.10,2013-03-22 12:36:00,
2013-03-22 05:51:00,39.7,39.0,29.93,East,84,0.0,1.0,96,0.00,,,0.00,weatherlink.com 1.10,2013-03-22 12:51:00,
2013-03-22 06:06:00,39.3,38.0,29.93,ENE,78,0.0,1.0,96,0.00,,,0.00,weatherlink.com 1.10,2013-03-22 13:06:00,
2013-03-22 06:21:00,39.4,38.0,29.93,NNE,16,0.0,1.0,96,0.00,,,0.00,weatherlink.com 1.10,2013-03-22 13:21:00,
2013-03-22 06:36:00,39.4,39.0,29.93,North,1,0.0,1.0,97,0.00,,,0.00,weatherlink.com 1.10,2013-03-22 13:36:00,
2013-03-22 06:51:00,39.7,39.0,29.93,NW,314,0.0,2.0,97,0.00,,,0.00,weatherlink.com 1.10,2013-03-22 13:51:00,
2013-03-22 07:06:00,40.2,39.0,29.93,SW,233,0.0,2.0,97,0.00,,,0.00,weatherlink.com 1.10,2013-03-22 14:06:00,
2013-03-22 07:21:00,40.4,40.0,29.94,NW,304,0.0,1.0,97,0.00,,,0.00,weatherlink.com 1.10,2013-03-22 14:21:00,
2013-03-22 07:36:00,40.7,40.0,29.94,NNE,22,0.0,1.0,97,0.00,,,0.00,weatherlink.com 1.10,2013-03-22 14:36:00,
2013-03-22 07:51:00,41.3,41.0,29.95,NNE,23,0.0,0.0,97,0.00,,,0.00,weatherlink.com 1.10,2013-03-22 14:51:00,
2013-03-22 08:06:00,43.2,43.0,29.95,SE,127,0.0,1.0,98,0.00,,,0.00,weatherlink.com 1.10,2013-03-22 15:06:00,
2013-03-22 08:22:00,45.3,45.0,29.96,ESE,113,0.0,1.0,98,0.00,,,0.00,weatherlink.com 1.10,2013-03-22 15:22:00,
2013-03-22 08:36:00,46.6,46.0,29.96,SE,131,1.0,2.0,97,0.00,,,0.00,weatherlink.com 1.10,2013-03-22 15:36:00,
2013-03-22 08:51:00,48.2,46.0,29.96,SSE,163,0.0,3.0,92,0.00,,,0.00,weatherlink.com 1.10,2013-03-22 15:51:00,
2013-03-22 09:07:00,49.6,46.0,29.96,SSW,198,0.0,4.0,86,0.00,,,0.00,weatherlink.com 1.10,2013-03-22 16:07:00,
2013-03-22 09:21:00,50.8,46.0,29.96,ESE,105,0.0,4.0,84,0.00,,,0.00,weatherlink.com 1.10,2013-03-22 16:21:00,
2013-03-22 09:36:00,51.6,46.0,29.97,SSE,160,2.0,5.0,80,0.00,,,0.00,weatherlink.com 1.10,2013-03-22 16:36:00,
2013-03-22 09:51:00,52.2,46.0,29.97,SW,217,5.0,6.0,79,0.00,,,0.00,weatherlink.com 1.10,2013-03-22 16:51:00,
2013-03-22 10:06:00,53.1,47.0,29.97,SE,144,2.0,5.0,79,0.00,,,0.00,weatherlink.com 1.10,2013-03-22 17:06:00,
2013-03-22 10:21:00,54.1,47.0,29.98,SW,215,3.0,5.0,77,0.00,,,0.00,weatherlink.com 1.10,2013-03-22 17:21:00,
2013-03-22 10:51:00,55.0,49.0,29.98,SW,232,4.0,6.0,80,0.00,,,0.00,weatherlink.com 1.10,2013-03-22 17:51:00,
2013-03-22 11:06:00,55.8,50.0,29.98,SSW,212,1.0,7.0,80,0.00,,,0.00,weatherlink.com 1.10,2013-03-22 18:06:00,
2013-03-22 11:22:00,56.6,49.0,29.99,SSW,210,3.0,6.0,77,0.00,,,0.00,weatherlink.com 1.10,2013-03-22 18:22:00,
2013-03-22 11:37:00,56.3,48.0,29.99,South,181,2.0,6.0,74,0.00,,,0.00,weatherlink.com 1.10,2013-03-22 18:37:00,
2013-03-22 11:52:00,56.8,47.0,29.99,SW,226,5.0,9.0,70,0.00,,,0.00,weatherlink.com 1.10,2013-03-22 18:52:00,
2013-03-22 12:07:00,57.3,47.0,29.98,SSW,201,4.0,7.0,69,0.00,,,0.00,weatherlink.com 1.10,2013-03-22 19:07:00,
2013-03-22 12:22:00,58.4,45.0,29.98,South,186,2.0,5.0,62,0.00,,,0.00,weatherlink.com 1.10,2013-03-22 19:22:00,
2013-03-22 12:37:00,59.2,44.0,29.98,SSW,212,1.0,6.0,57,0.00,,,0.00,weatherlink.com 1.10,2013-03-22 19:37:00,
2013-03-22 12:52:00,60.1,43.0,29.97,SE,132,3.0,6.0,54,0.00,,,0.00,weatherlink.com 1.10,2013-03-22 19:52:00,
2013-03-22 13:07:00,60.7,43.0,29.97,SW,225,4.0,6.0,52,0.00,,,0.00,weatherlink.com 1.10,2013-03-22 20:07:00,
2013-03-22 13:22:00,62.2,43.0,29.96,SSE,150,3.0,5.0,49,0.00,,,0.00,weatherlink.com 1.10,2013-03-22 20:22:00,
2013-03-22 13:37:00,63.8,43.0,29.95,ESE,109,1.0,5.0,47,0.00,,,0.00,weatherlink.com 1.10,2013-03-22 20:37:00,
2013-03-22 13:52:00,68.0,29.0,29.94,NE,51,3.0,9.0,23,0.00,,,0.00,weatherlink.com 1.10,2013-03-22 20:52:00,
2013-03-22 14:07:00,69.9,27.0,29.94,NNW,333,2.0,10.0,20,0.00,,,0.00,weatherlink.com 1.10,2013-03-22 21:07:00,
2013-03-22 14:22:00,70.2,27.0,29.93,NW,325,4.0,14.0,20,0.00,,,0.00,weatherlink.com 1.10,2013-03-22 21:22:00,
2013-03-22 14:37:00,70.1,27.0,29.92,NNE,18,4.0,13.0,20,0.00,,,0.00,weatherlink.com 1.10,2013-03-22 21:37:00,
2013-03-22 14:52:00,70.1,26.0,29.92,WNW,300,5.0,12.0,19,0.00,,,0.00,weatherlink.com 1.10,2013-03-22 21:52:00,
2013-03-22 15:08:00,70.7,22.0,29.92,NNE,32,3.0,8.0,16,0.00,,,0.00,weatherlink.com 1.10,2013-03-22 22:08:00,
2013-03-22 15:22:00,70.9,24.0,29.91,North,359,2.0,9.0,17,0.00,,,0.00,weatherlink.com 1.10,2013-03-22 22:22:00,
2013-03-22 15:37:00,71.2,28.0,29.91,ENE,70,1.0,11.0,20,0.00,,,0.00,weatherlink.com 1.10,2013-03-22 22:37:00,
2013-03-22 15:52:00,71.6,23.0,29.91,NNE,30,3.0,9.0,16,0.00,,,0.00,weatherlink.com 1.10,2013-03-22 22:52:00,
2013-03-22 16:07:00,71.1,24.0,29.91,NNE,32,3.0,10.0,17,0.00,,,0.00,weatherlink.com 1.10,2013-03-22 23:07:00,
2013-03-22 16:23:00,71.2,23.0,29.90,NNW,342,4.0,11.0,16,0.00,,,0.00,weatherlink.com 1.10,2013-03-22 23:23:00,
2013-03-22 16:38:00,71.6,23.0,29.90,NNW,332,6.0,14.0,16,0.00,,,0.00,weatherlink.com 1.10,2013-03-22 23:38:00,
2013-03-22 16:53:00,70.6,24.0,29.90,NNE,12,6.0,10.0,17,0.00,,,0.00,weatherlink.com 1.10,2013-03-22 23:53:00,
2013-03-22 17:08:00,70.6,25.0,29.91,North,356,3.0,9.0,18,0.00,,,0.00,weatherlink.com 1.10,2013-03-23 00:08:00,
2013-03-22 17:23:00,70.7,26.0,29.90,North,11,5.0,5.0,19,0.00,,,0.00,weatherlink.com 1.10,2013-03-23 00:23:00,
2013-03-22 17:38:00,70.0,26.0,29.90,NNE,15,2.0,6.0,19,0.00,,,0.00,weatherlink.com 1.10,2013-03-23 00:38:00,
2013-03-22 17:53:00,69.3,25.0,29.90,NW,307,2.0,8.0,19,0.00,,,0.00,weatherlink.com 1.10,2013-03-23 00:53:00,
2013-03-22 18:08:00,68.7,26.0,29.90,NNW,332,2.0,10.0,20,0.00,,,0.00,weatherlink.com 1.10,2013-03-23 01:08:00,
2013-03-22 18:23:00,68.7,26.0,29.91,NNE,18,2.0,8.0,20,0.00,,,0.00,weatherlink.com 1.10,2013-03-23 01:23:00,
2013-03-22 18:38:00,67.6,24.0,29.91,NW,316,1.0,8.0,19,0.00,,,0.00,weatherlink.com 1.10,2013-03-23 01:38:00,
2013-03-22 18:53:00,66.7,23.0,29.90,NW,319,0.0,6.0,19,0.00,,,0.00,weatherlink.com 1.10,2013-03-23 01:53:00,
2013-03-22 19:08:00,65.3,23.0,29.91,NW,321,1.0,7.0,20,0.00,,,0.00,weatherlink.com 1.10,2013-03-23 02:08:00,
2013-03-22 19:23:00,62.5,30.0,29.92,NW,316,0.0,5.0,29,0.00,,,0.00,weatherlink.com 1.10,2013-03-23 02:23:00,
2013-03-22 19:38:00,60.7,34.0,29.92,NW,316,2.0,7.0,37,0.00,,,0.00,weatherlink.com 1.10,2013-03-23 02:38:00,
2013-03-22 19:53:00,59.2,35.0,29.92,NW,307,0.0,4.0,41,0.00,,,0.00,weatherlink.com 1.10,2013-03-23 02:53:00,
2013-03-22 20:08:00,57.9,36.0,29.92,WNW,301,1.0,4.0,44,0.00,,,0.00,weatherlink.com 1.10,2013-03-23 03:08:00,
2013-03-22 20:23:00,57.2,35.0,29.93,NW,326,0.0,1.0,44,0.00,,,0.00,weatherlink.com 1.10,2013-03-23 03:23:00,
2013-03-22 20:38:00,55.7,36.0,29.93,West,276,0.0,1.0,47,0.00,,,0.00,weatherlink.com 1.10,2013-03-23 03:38:00,
2013-03-22 20:53:00,54.9,36.0,29.94,West,264,0.0,1.0,50,0.00,,,0.00,weatherlink.com 1.10,2013-03-23 03:53:00,
2013-03-22 21:23:00,52.1,37.0,29.95,SSW,197,0.0,1.0,57,0.00,,,0.00,weatherlink.com 1.10,2013-03-23 04:23:00,
2013-03-22 21:38:00,53.5,36.0,29.95,SW,217,0.0,2.0,52,0.00,,,0.00,weatherlink.com 1.10,2013-03-23 04:38:00,
2013-03-22 21:53:00,51.0,37.0,29.96,NNE,18,0.0,1.0,60,0.00,,,0.00,weatherlink.com 1.10,2013-03-23 04:53:00,
2013-03-22 22:08:00,49.5,37.0,29.96,ENE,58,0.0,1.0,62,0.00,,,0.00,weatherlink.com 1.10,2013-03-23 05:08:00,
2013-03-22 22:23:00,48.7,37.0,29.96,NE,37,0.0,1.0,65,0.00,,,0.00,weatherlink.com 1.10,2013-03-23 05:23:00,
2013-03-22 22:38:00,48.6,38.0,29.97,ENE,70,0.0,1.0,67,0.00,,,0.00,weatherlink.com 1.10,2013-03-23 05:38:00,
2013-03-22 22:53:00,47.1,37.0,29.96,ENE,61,0.0,1.0,68,0.00,,,0.00,weatherlink.com 1.10,2013-03-23 05:53:00,
2013-03-22 23:08:00,46.8,37.0,29.97,NNE,12,0.0,1.0,70,0.00,,,0.00,weatherlink.com 1.10,2013-03-23 06:08:00,
2013-03-22 23:23:00,46.3,37.0,29.98,NNE,13,0.0,3.0,71,0.00,,,0.00,weatherlink.com 1.10,2013-03-23 06:23:00,
2013-03-22 23:38:00,45.8,37.0,29.98,ENE,71,0.0,1.0,72,0.00,,,0.00,weatherlink.com 1.10,2013-03-23 06:38:00,
2013-03-22 23:53:00,45.4,37.0,29.98,NNE,14,0.0,1.0,73,0.00,,,0.00,weatherlink.com 1.10,2013-03-23 06:53:00,